sensor_id;sensor_type;location;lat;lon;timestamp;temperature;humidity
8178;DHT22;4130;48.740;9.132;2022-09-14T00:01:02;18.10;99.90
8178;DHT22;4130;48.740;9.132;2022-09-14T00:03:31;18.10;99.90
8178;DHT22;4130;48.740;9.132;2022-09-14T00:06:02;18.10;99.90
8178;DHT22;4130;48.740;9.132;2022-09-14T00:08:30;18.10;99.90
8178;DHT22;4130;48.740;9.132;2022-09-14T00:10:57;18.10;99.90
8178;DHT22;4130;48.740;9.132;2022-09-14T00:13:24;18.20;99.90
8178;DHT22;4130;48.740;9.132;2022-09-14T00:15:51;18.20;99.90
8178;DHT22;4130;48.740;9.132;2022-09-14T00:18:17;18.20;99.90
8178;DHT22;4130;48.740;9.132;2022-09-14T00:20:44;18.20;99.90
8178;DHT22;4130;48.740;9.132;2022-09-14T00:23:11;18.30;99.90
8178;DHT22;4130;48.740;9.132;2022-09-14T00:25:39;18.30;99.90
8178;DHT22;4130;48.740;9.132;2022-09-14T00:28:05;18.30;99.90
8178;DHT22;4130;48.740;9.132;2022-09-14T00:30:32;18.30;99.90
8178;DHT22;4130;48.740;9.132;2022-09-14T00:32:59;18.30;99.90
8178;DHT22;4130;48.740;9.132;2022-09-14T00:35:26;18.30;99.90
8178;DHT22;4130;48.740;9.132;2022-09-14T00:37:52;18.30;99.90
8178;DHT22;4130;48.740;9.132;2022-09-14T00:40:19;18.30;99.90
8178;DHT22;4130;48.740;9.132;2022-09-14T00:42:47;18.20;99.90
8178;DHT22;4130;48.740;9.132;2022-09-14T00:45:16;18.30;99.90
8178;DHT22;4130;48.740;9.132;2022-09-14T00:47:44;18.30;99.90
8178;DHT22;4130;48.740;9.132;2022-09-14T00:50:13;18.30;99.90
8178;DHT22;4130;48.740;9.132;2022-09-14T00:52:41;18.30;99.90
8178;DHT22;4130;48.740;9.132;2022-09-14T00:55:15;18.30;99.90
8178;DHT22;4130;48.740;9.132;2022-09-14T00:57:44;18.30;99.90
8178;DHT22;4130;48.740;9.132;2022-09-14T01:00:16;18.30;99.90
8178;DHT22;4130;48.740;9.132;2022-09-14T01:02:43;18.30;99.90
8178;DHT22;4130;48.740;9.132;2022-09-14T01:05:11;18.30;99.90
8178;DHT22;4130;48.740;9.132;2022-09-14T01:07:48;18.30;99.90
8178;DHT22;4130;48.740;9.132;2022-09-14T01:10:27;18.30;99.90
8178;DHT22;4130;48.740;9.132;2022-09-14T01:13:05;18.20;99.90
8178;DHT22;4130;48.740;9.132;2022-09-14T01:15:44;18.20;99.90
8178;DHT22;4130;48.740;9.132;2022-09-14T01:18:15;18.10;99.90
8178;DHT22;4130;48.740;9.132;2022-09-14T01:20:48;17.90;99.90
8178;DHT22;4130;48.740;9.132;2022-09-14T01:23:23;17.80;99.90
8178;DHT22;4130;48.740;9.132;2022-09-14T01:28:54;17.80;99.90
8178;DHT22;4130;48.740;9.132;2022-09-14T01:31:27;17.60;99.90
8178;DHT22;4130;48.740;9.132;2022-09-14T01:34:01;17.40;99.90
8178;DHT22;4130;48.740;9.132;2022-09-14T01:36:32;17.40;99.90
8178;DHT22;4130;48.740;9.132;2022-09-14T01:39:00;17.30;99.90
8178;DHT22;4130;48.740;9.132;2022-09-14T01:41:28;17.30;99.90
8178;DHT22;4130;48.740;9.132;2022-09-14T01:44:00;17.30;99.90
8178;DHT22;4130;48.740;9.132;2022-09-14T01:46:33;17.30;99.90
8178;DHT22;4130;48.740;9.132;2022-09-14T01:49:03;17.30;99.90
8178;DHT22;4130;48.740;9.132;2022-09-14T01:51:38;17.40;99.90
8178;DHT22;4130;48.740;9.132;2022-09-14T01:54:10;17.40;99.90
8178;DHT22;4130;48.740;9.132;2022-09-14T01:56:42;17.50;99.90
8178;DHT22;4130;48.740;9.132;2022-09-14T01:59:14;17.50;99.90
8178;DHT22;4130;48.740;9.132;2022-09-14T02:01:47;17.50;99.90
8178;DHT22;4130;48.740;9.132;2022-09-14T02:04:20;17.50;99.90
8178;DHT22;4130;48.740;9.132;2022-09-14T02:06:48;17.50;99.90
8178;DHT22;4130;48.740;9.132;2022-09-14T02:09:17;17.50;99.90
8178;DHT22;4130;48.740;9.132;2022-09-14T02:11:45;17.50;99.90
8178;DHT22;4130;48.740;9.132;2022-09-14T02:14:14;17.40;99.90
8178;DHT22;4130;48.740;9.132;2022-09-14T02:16:41;17.50;99.90
8178;DHT22;4130;48.740;9.132;2022-09-14T02:19:11;17.50;99.90
8178;DHT22;4130;48.740;9.132;2022-09-14T02:21:38;17.60;99.90
8178;DHT22;4130;48.740;9.132;2022-09-14T02:24:06;17.40;99.90
8178;DHT22;4130;48.740;9.132;2022-09-14T02:26:34;17.40;99.90
8178;DHT22;4130;48.740;9.132;2022-09-14T02:29:01;17.40;99.90
8178;DHT22;4130;48.740;9.132;2022-09-14T02:31:37;17.40;99.90
8178;DHT22;4130;48.740;9.132;2022-09-14T02:34:09;17.30;99.90
8178;DHT22;4130;48.740;9.132;2022-09-14T02:36:46;17.30;99.90
8178;DHT22;4130;48.740;9.132;2022-09-14T02:39:23;17.30;99.90
8178;DHT22;4130;48.740;9.132;2022-09-14T02:41:58;17.30;99.90
8178;DHT22;4130;48.740;9.132;2022-09-14T02:44:33;17.30;99.90
8178;DHT22;4130;48.740;9.132;2022-09-14T02:47:04;17.30;99.90
8178;DHT22;4130;48.740;9.132;2022-09-14T02:49:37;17.20;99.90
8178;DHT22;4130;48.740;9.132;2022-09-14T02:52:10;17.20;99.90
8178;DHT22;4130;48.740;9.132;2022-09-14T02:54:46;17.20;99.90
8178;DHT22;4130;48.740;9.132;2022-09-14T02:57:14;17.20;99.90
8178;DHT22;4130;48.740;9.132;2022-09-14T02:59:41;17.20;99.90
8178;DHT22;4130;48.740;9.132;2022-09-14T03:02:09;17.20;99.90
8178;DHT22;4130;48.740;9.132;2022-09-14T03:04:36;17.20;99.90
8178;DHT22;4130;48.740;9.132;2022-09-14T03:07:03;17.20;99.90
8178;DHT22;4130;48.740;9.132;2022-09-14T03:09:29;17.10;99.90
8178;DHT22;4130;48.740;9.132;2022-09-14T03:11:56;17.10;99.90
8178;DHT22;4130;48.740;9.132;2022-09-14T03:14:23;17.10;99.90
8178;DHT22;4130;48.740;9.132;2022-09-14T03:16:50;17.10;99.90
8178;DHT22;4130;48.740;9.132;2022-09-14T03:19:18;17.10;99.90
8178;DHT22;4130;48.740;9.132;2022-09-14T03:21:44;17.10;99.90
8178;DHT22;4130;48.740;9.132;2022-09-14T03:24:11;17.10;99.90
8178;DHT22;4130;48.740;9.132;2022-09-14T03:26:38;17.10;99.90
8178;DHT22;4130;48.740;9.132;2022-09-14T03:29:05;17.10;99.90
8178;DHT22;4130;48.740;9.132;2022-09-14T03:31:32;17.10;99.90
8178;DHT22;4130;48.740;9.132;2022-09-14T03:34:01;17.00;99.90
8178;DHT22;4130;48.740;9.132;2022-09-14T03:36:30;17.00;99.90
8178;DHT22;4130;48.740;9.132;2022-09-14T03:38:58;17.00;99.90
8178;DHT22;4130;48.740;9.132;2022-09-14T03:41:26;17.00;99.90
8178;DHT22;4130;48.740;9.132;2022-09-14T03:43:53;17.00;99.90
8178;DHT22;4130;48.740;9.132;2022-09-14T03:46:22;17.00;99.90
8178;DHT22;4130;48.740;9.132;2022-09-14T03:48:50;17.00;99.90
8178;DHT22;4130;48.740;9.132;2022-09-14T03:51:16;17.00;99.90
8178;DHT22;4130;48.740;9.132;2022-09-14T03:53:45;17.10;99.90
8178;DHT22;4130;48.740;9.132;2022-09-14T03:56:13;17.00;99.90
8178;DHT22;4130;48.740;9.132;2022-09-14T03:58:41;17.00;99.90
8178;DHT22;4130;48.740;9.132;2022-09-14T04:01:10;17.00;99.90
8178;DHT22;4130;48.740;9.132;2022-09-14T04:03:37;17.10;99.90
8178;DHT22;4130;48.740;9.132;2022-09-14T04:06:04;17.10;99.90
8178;DHT22;4130;48.740;9.132;2022-09-14T04:08:32;17.10;99.90
8178;DHT22;4130;48.740;9.132;2022-09-14T04:11:05;17.10;99.90
8178;DHT22;4130;48.740;9.132;2022-09-14T04:13:32;17.10;99.90
8178;DHT22;4130;48.740;9.132;2022-09-14T04:15:59;17.10;99.90
8178;DHT22;4130;48.740;9.132;2022-09-14T04:18:27;17.10;99.90
8178;DHT22;4130;48.740;9.132;2022-09-14T04:20:55;17.10;99.90
8178;DHT22;4130;48.740;9.132;2022-09-14T04:23:22;17.10;99.90
8178;DHT22;4130;48.740;9.132;2022-09-14T04:25:49;17.10;99.90
8178;DHT22;4130;48.740;9.132;2022-09-14T04:28:17;17.10;99.90
8178;DHT22;4130;48.740;9.132;2022-09-14T04:30:53;17.10;99.90
8178;DHT22;4130;48.740;9.132;2022-09-14T04:33:20;17.10;99.90
8178;DHT22;4130;48.740;9.132;2022-09-14T04:35:56;17.10;99.90
8178;DHT22;4130;48.740;9.132;2022-09-14T04:38:23;17.10;99.90
8178;DHT22;4130;48.740;9.132;2022-09-14T04:40:50;17.20;99.90
8178;DHT22;4130;48.740;9.132;2022-09-14T04:43:18;17.20;99.90
8178;DHT22;4130;48.740;9.132;2022-09-14T04:45:45;17.10;99.90
8178;DHT22;4130;48.740;9.132;2022-09-14T04:48:12;17.10;99.90
8178;DHT22;4130;48.740;9.132;2022-09-14T04:50:38;17.20;99.90
8178;DHT22;4130;48.740;9.132;2022-09-14T04:53:06;17.20;99.90
8178;DHT22;4130;48.740;9.132;2022-09-14T04:55:33;17.20;99.90
8178;DHT22;4130;48.740;9.132;2022-09-14T04:58:00;17.20;99.90
8178;DHT22;4130;48.740;9.132;2022-09-14T05:00:28;17.10;99.90
8178;DHT22;4130;48.740;9.132;2022-09-14T05:02:54;17.20;99.90
8178;DHT22;4130;48.740;9.132;2022-09-14T05:05:21;17.20;99.90
8178;DHT22;4130;48.740;9.132;2022-09-14T05:07:48;17.20;99.90
8178;DHT22;4130;48.740;9.132;2022-09-14T05:10:15;17.30;99.90
8178;DHT22;4130;48.740;9.132;2022-09-14T05:12:41;17.30;99.90
8178;DHT22;4130;48.740;9.132;2022-09-14T05:15:09;17.40;99.90
8178;DHT22;4130;48.740;9.132;2022-09-14T05:17:37;17.40;99.90
8178;DHT22;4130;48.740;9.132;2022-09-14T05:20:05;17.50;99.90
8178;DHT22;4130;48.740;9.132;2022-09-14T05:22:32;17.60;99.90
8178;DHT22;4130;48.740;9.132;2022-09-14T05:24:58;17.60;99.90
8178;DHT22;4130;48.740;9.132;2022-09-14T05:27:25;17.70;99.90
8178;DHT22;4130;48.740;9.132;2022-09-14T05:29:52;17.80;99.90
8178;DHT22;4130;48.740;9.132;2022-09-14T05:32:18;17.90;99.90
8178;DHT22;4130;48.740;9.132;2022-09-14T05:34:47;17.90;99.90
8178;DHT22;4130;48.740;9.132;2022-09-14T05:37:14;18.00;99.90
8178;DHT22;4130;48.740;9.132;2022-09-14T05:39:41;18.00;99.90
8178;DHT22;4130;48.740;9.132;2022-09-14T05:42:08;18.10;99.90
8178;DHT22;4130;48.740;9.132;2022-09-14T05:44:34;18.10;99.90
8178;DHT22;4130;48.740;9.132;2022-09-14T05:47:01;18.20;99.90
8178;DHT22;4130;48.740;9.132;2022-09-14T05:49:28;18.20;99.90
8178;DHT22;4130;48.740;9.132;2022-09-14T05:51:56;18.30;99.90
8178;DHT22;4130;48.740;9.132;2022-09-14T05:54:23;18.30;99.90
8178;DHT22;4130;48.740;9.132;2022-09-14T05:56:50;18.30;99.90
8178;DHT22;4130;48.740;9.132;2022-09-14T05:59:16;18.30;99.90
8178;DHT22;4130;48.740;9.132;2022-09-14T06:01:43;18.40;99.90
8178;DHT22;4130;48.740;9.132;2022-09-14T06:04:10;18.40;99.90
8178;DHT22;4130;48.740;9.132;2022-09-14T06:06:37;18.40;99.90
8178;DHT22;4130;48.740;9.132;2022-09-14T06:09:05;18.40;99.90
8178;DHT22;4130;48.740;9.132;2022-09-14T06:11:33;18.50;99.90
8178;DHT22;4130;48.740;9.132;2022-09-14T06:14:02;18.50;99.90
8178;DHT22;4130;48.740;9.132;2022-09-14T06:16:29;18.60;99.90
8178;DHT22;4130;48.740;9.132;2022-09-14T06:18:57;18.60;99.90
8178;DHT22;4130;48.740;9.132;2022-09-14T06:21:27;18.70;99.90
8178;DHT22;4130;48.740;9.132;2022-09-14T06:23:55;18.80;99.90
8178;DHT22;4130;48.740;9.132;2022-09-14T06:26:23;18.80;99.90
8178;DHT22;4130;48.740;9.132;2022-09-14T06:28:50;18.90;99.90
8178;DHT22;4130;48.740;9.132;2022-09-14T06:31:18;19.00;99.90
8178;DHT22;4130;48.740;9.132;2022-09-14T06:33:47;19.10;99.90
8178;DHT22;4130;48.740;9.132;2022-09-14T06:36:16;19.10;99.90
8178;DHT22;4130;48.740;9.132;2022-09-14T06:38:45;19.20;99.90
8178;DHT22;4130;48.740;9.132;2022-09-14T06:41:14;19.30;99.90
8178;DHT22;4130;48.740;9.132;2022-09-14T06:43:44;19.40;99.90
8178;DHT22;4130;48.740;9.132;2022-09-14T06:46:13;19.40;99.90
8178;DHT22;4130;48.740;9.132;2022-09-14T06:48:41;19.50;99.90
8178;DHT22;4130;48.740;9.132;2022-09-14T06:51:13;19.50;99.90
8178;DHT22;4130;48.740;9.132;2022-09-14T06:53:40;19.60;99.90
8178;DHT22;4130;48.740;9.132;2022-09-14T06:56:07;19.60;99.90
8178;DHT22;4130;48.740;9.132;2022-09-14T06:58:33;20.20;99.90
8178;DHT22;4130;48.740;9.132;2022-09-14T07:01:02;19.80;99.90
8178;DHT22;4130;48.740;9.132;2022-09-14T07:03:29;19.90;99.90
8178;DHT22;4130;48.740;9.132;2022-09-14T07:06:00;19.90;99.90
8178;DHT22;4130;48.740;9.132;2022-09-14T07:08:29;20.00;99.90
8178;DHT22;4130;48.740;9.132;2022-09-14T07:10:56;20.10;99.90
8178;DHT22;4130;48.740;9.132;2022-09-14T07:13:23;20.20;99.90
8178;DHT22;4130;48.740;9.132;2022-09-14T07:15:50;20.30;99.90
8178;DHT22;4130;48.740;9.132;2022-09-14T07:18:18;20.30;99.90
8178;DHT22;4130;48.740;9.132;2022-09-14T07:20:45;20.40;99.90
8178;DHT22;4130;48.740;9.132;2022-09-14T07:23:12;20.40;99.90
8178;DHT22;4130;48.740;9.132;2022-09-14T07:25:39;20.50;99.90
8178;DHT22;4130;48.740;9.132;2022-09-14T07:28:07;20.50;99.90
8178;DHT22;4130;48.740;9.132;2022-09-14T07:30:34;20.60;99.90
8178;DHT22;4130;48.740;9.132;2022-09-14T07:33:02;20.70;99.90
8178;DHT22;4130;48.740;9.132;2022-09-14T07:35:30;20.70;99.90
8178;DHT22;4130;48.740;9.132;2022-09-14T07:37:57;20.60;99.90
8178;DHT22;4130;48.740;9.132;2022-09-14T07:40:24;20.50;99.90
8178;DHT22;4130;48.740;9.132;2022-09-14T07:42:51;20.60;99.90
8178;DHT22;4130;48.740;9.132;2022-09-14T07:45:19;20.50;99.90
8178;DHT22;4130;48.740;9.132;2022-09-14T07:47:46;20.60;99.90
8178;DHT22;4130;48.740;9.132;2022-09-14T07:50:13;20.70;99.90
8178;DHT22;4130;48.740;9.132;2022-09-14T07:52:42;20.60;99.90
8178;DHT22;4130;48.740;9.132;2022-09-14T07:55:08;20.70;99.90
8178;DHT22;4130;48.740;9.132;2022-09-14T07:57:37;20.80;99.90
8178;DHT22;4130;48.740;9.132;2022-09-14T08:00:05;20.90;99.90
8178;DHT22;4130;48.740;9.132;2022-09-14T08:02:33;21.00;99.90
8178;DHT22;4130;48.740;9.132;2022-09-14T08:04:59;21.10;99.90
8178;DHT22;4130;48.740;9.132;2022-09-14T08:07:26;21.30;99.90
8178;DHT22;4130;48.740;9.132;2022-09-14T08:09:54;21.50;99.90
8178;DHT22;4130;48.740;9.132;2022-09-14T08:12:21;21.90;99.90
8178;DHT22;4130;48.740;9.132;2022-09-14T08:14:48;22.20;99.90
8178;DHT22;4130;48.740;9.132;2022-09-14T08:17:16;22.40;99.90
8178;DHT22;4130;48.740;9.132;2022-09-14T08:19:46;22.50;99.90
8178;DHT22;4130;48.740;9.132;2022-09-14T08:22:13;22.60;99.90
8178;DHT22;4130;48.740;9.132;2022-09-14T08:24:39;22.60;99.90
8178;DHT22;4130;48.740;9.132;2022-09-14T08:27:08;22.60;99.90
8178;DHT22;4130;48.740;9.132;2022-09-14T08:29:35;22.50;99.90
8178;DHT22;4130;48.740;9.132;2022-09-14T08:32:02;22.50;99.90
8178;DHT22;4130;48.740;9.132;2022-09-14T08:34:29;22.50;99.90
8178;DHT22;4130;48.740;9.132;2022-09-14T08:36:55;22.40;99.90
8178;DHT22;4130;48.740;9.132;2022-09-14T08:39:22;22.50;99.90
8178;DHT22;4130;48.740;9.132;2022-09-14T08:41:52;22.50;99.90
8178;DHT22;4130;48.740;9.132;2022-09-14T08:44:24;22.40;99.90
8178;DHT22;4130;48.740;9.132;2022-09-14T08:46:57;22.20;99.90
8178;DHT22;4130;48.740;9.132;2022-09-14T08:49:40;22.10;99.90
8178;DHT22;4130;48.740;9.132;2022-09-14T08:52:12;22.10;99.90
8178;DHT22;4130;48.740;9.132;2022-09-14T08:54:42;22.20;99.90
8178;DHT22;4130;48.740;9.132;2022-09-14T08:57:14;22.30;99.90
8178;DHT22;4130;48.740;9.132;2022-09-14T08:59:49;22.30;99.90
8178;DHT22;4130;48.740;9.132;2022-09-14T09:02:39;22.30;99.90
8178;DHT22;4130;48.740;9.132;2022-09-14T09:05:24;22.30;99.90
8178;DHT22;4130;48.740;9.132;2022-09-14T09:08:00;22.30;99.90
8178;DHT22;4130;48.740;9.132;2022-09-14T09:10:31;22.40;99.90
8178;DHT22;4130;48.740;9.132;2022-09-14T09:13:00;22.50;99.90
8178;DHT22;4130;48.740;9.132;2022-09-14T09:15:34;22.80;99.90
8178;DHT22;4130;48.740;9.132;2022-09-14T09:18:05;23.10;99.90
8178;DHT22;4130;48.740;9.132;2022-09-14T09:20:34;23.50;99.90
8178;DHT22;4130;48.740;9.132;2022-09-14T09:23:07;23.90;99.90
8178;DHT22;4130;48.740;9.132;2022-09-14T09:25:54;24.40;99.90
8178;DHT22;4130;48.740;9.132;2022-09-14T09:28:23;24.70;99.90
8178;DHT22;4130;48.740;9.132;2022-09-14T09:30:52;25.20;99.90
8178;DHT22;4130;48.740;9.132;2022-09-14T09:33:21;25.30;99.90
8178;DHT22;4130;48.740;9.132;2022-09-14T09:35:48;25.50;99.90
8178;DHT22;4130;48.740;9.132;2022-09-14T09:38:17;25.40;99.90
8178;DHT22;4130;48.740;9.132;2022-09-14T09:40:47;25.50;99.90
8178;DHT22;4130;48.740;9.132;2022-09-14T09:43:16;25.60;99.90
8178;DHT22;4130;48.740;9.132;2022-09-14T09:45:56;25.60;99.90
8178;DHT22;4130;48.740;9.132;2022-09-14T09:48:26;25.50;99.90
8178;DHT22;4130;48.740;9.132;2022-09-14T09:51:06;25.40;99.90
8178;DHT22;4130;48.740;9.132;2022-09-14T09:53:36;25.40;99.90
8178;DHT22;4130;48.740;9.132;2022-09-14T09:56:04;25.40;99.90
8178;DHT22;4130;48.740;9.132;2022-09-14T09:58:35;25.30;99.90
8178;DHT22;4130;48.740;9.132;2022-09-14T10:01:05;25.30;99.90
8178;DHT22;4130;48.740;9.132;2022-09-14T10:03:35;25.30;99.90
8178;DHT22;4130;48.740;9.132;2022-09-14T10:06:06;25.40;99.90
8178;DHT22;4130;48.740;9.132;2022-09-14T10:08:40;25.30;99.90
8178;DHT22;4130;48.740;9.132;2022-09-14T10:11:27;25.00;99.90
8178;DHT22;4130;48.740;9.132;2022-09-14T10:13:55;25.20;99.90
8178;DHT22;4130;48.740;9.132;2022-09-14T10:16:31;25.30;99.90
8178;DHT22;4130;48.740;9.132;2022-09-14T10:18:59;25.40;99.90
8178;DHT22;4130;48.740;9.132;2022-09-14T10:21:28;25.40;99.90
8178;DHT22;4130;48.740;9.132;2022-09-14T10:24:04;25.40;99.90
8178;DHT22;4130;48.740;9.132;2022-09-14T10:26:34;25.40;99.90
8178;DHT22;4130;48.740;9.132;2022-09-14T10:29:26;25.40;99.90
8178;DHT22;4130;48.740;9.132;2022-09-14T10:32:00;25.20;99.90
8178;DHT22;4130;48.740;9.132;2022-09-14T10:34:29;25.20;99.90
8178;DHT22;4130;48.740;9.132;2022-09-14T10:37:08;25.20;99.90
8178;DHT22;4130;48.740;9.132;2022-09-14T10:39:40;25.40;99.90
8178;DHT22;4130;48.740;9.132;2022-09-14T10:42:16;25.40;99.90
8178;DHT22;4130;48.740;9.132;2022-09-14T10:44:51;25.50;99.90
8178;DHT22;4130;48.740;9.132;2022-09-14T10:47:39;25.50;99.90
8178;DHT22;4130;48.740;9.132;2022-09-14T10:50:27;25.30;99.90
8178;DHT22;4130;48.740;9.132;2022-09-14T10:53:07;25.10;99.90
8178;DHT22;4130;48.740;9.132;2022-09-14T10:55:40;25.00;99.90
8178;DHT22;4130;48.740;9.132;2022-09-14T10:58:23;25.10;99.90
8178;DHT22;4130;48.740;9.132;2022-09-14T11:00:59;25.20;99.90
8178;DHT22;4130;48.740;9.132;2022-09-14T11:03:39;25.30;99.90
8178;DHT22;4130;48.740;9.132;2022-09-14T11:06:22;25.30;99.90
8178;DHT22;4130;48.740;9.132;2022-09-14T11:08:56;25.40;99.90
8178;DHT22;4130;48.740;9.132;2022-09-14T11:11:35;25.60;99.90
8178;DHT22;4130;48.740;9.132;2022-09-14T11:14:22;25.80;99.90
8178;DHT22;4130;48.740;9.132;2022-09-14T11:17:11;26.20;99.90
8178;DHT22;4130;48.740;9.132;2022-09-14T11:19:48;26.60;99.90
8178;DHT22;4130;48.740;9.132;2022-09-14T11:22:22;27.00;99.90
8178;DHT22;4130;48.740;9.132;2022-09-14T11:24:55;27.00;99.90
8178;DHT22;4130;48.740;9.132;2022-09-14T11:27:25;26.80;99.90
8178;DHT22;4130;48.740;9.132;2022-09-14T11:29:57;26.80;99.90
8178;DHT22;4130;48.740;9.132;2022-09-14T11:32:29;26.60;99.90
8178;DHT22;4130;48.740;9.132;2022-09-14T11:35:02;26.70;99.90
8178;DHT22;4130;48.740;9.132;2022-09-14T11:37:34;26.60;99.90
8178;DHT22;4130;48.740;9.132;2022-09-14T11:40:07;26.80;99.90
8178;DHT22;4130;48.740;9.132;2022-09-14T11:42:44;27.40;99.90
8178;DHT22;4130;48.740;9.132;2022-09-14T11:45:18;27.70;99.90
8178;DHT22;4130;48.740;9.132;2022-09-14T11:47:51;27.70;99.90
8178;DHT22;4130;48.740;9.132;2022-09-14T11:50:24;27.40;99.90
8178;DHT22;4130;48.740;9.132;2022-09-14T11:53:01;27.10;99.90
8178;DHT22;4130;48.740;9.132;2022-09-14T11:55:29;26.80;99.90
8178;DHT22;4130;48.740;9.132;2022-09-14T11:57:56;26.60;99.90
8178;DHT22;4130;48.740;9.132;2022-09-14T12:00:55;26.30;99.90
8178;DHT22;4130;48.740;9.132;2022-09-14T12:03:45;26.10;99.90
8178;DHT22;4130;48.740;9.132;2022-09-14T12:06:50;26.00;99.90
8178;DHT22;4130;48.740;9.132;2022-09-14T12:09:42;25.90;99.90
8178;DHT22;4130;48.740;9.132;2022-09-14T12:12:32;25.90;99.90
8178;DHT22;4130;48.740;9.132;2022-09-14T12:15:02;25.70;99.90
8178;DHT22;4130;48.740;9.132;2022-09-14T12:17:32;25.60;99.90
8178;DHT22;4130;48.740;9.132;2022-09-14T12:23:22;25.40;99.90
8178;DHT22;4130;48.740;9.132;2022-09-14T12:25:57;25.40;99.90
8178;DHT22;4130;48.740;9.132;2022-09-14T12:28:28;25.30;99.90
8178;DHT22;4130;48.740;9.132;2022-09-14T12:31:11;25.20;99.90
8178;DHT22;4130;48.740;9.132;2022-09-14T12:40:31;24.70;99.90
8178;DHT22;4130;48.740;9.132;2022-09-14T12:46:31;23.30;99.90
8178;DHT22;4130;48.740;9.132;2022-09-14T12:49:00;22.50;99.90
8178;DHT22;4130;48.740;9.132;2022-09-14T12:51:38;21.90;99.90
8178;DHT22;4130;48.740;9.132;2022-09-14T12:54:18;21.30;99.90
8178;DHT22;4130;48.740;9.132;2022-09-14T12:59:40;20.50;99.90
8178;DHT22;4130;48.740;9.132;2022-09-14T13:02:28;20.10;99.90
8178;DHT22;4130;48.740;9.132;2022-09-14T13:05:00;20.00;99.90
8178;DHT22;4130;48.740;9.132;2022-09-14T13:07:29;19.90;99.90
8178;DHT22;4130;48.740;9.132;2022-09-14T13:09:58;19.80;99.90
8178;DHT22;4130;48.740;9.132;2022-09-14T13:12:32;19.80;99.90
8178;DHT22;4130;48.740;9.132;2022-09-14T13:15:02;19.80;99.90
8178;DHT22;4130;48.740;9.132;2022-09-14T13:17:30;19.80;99.90
8178;DHT22;4130;48.740;9.132;2022-09-14T13:19:59;19.70;99.90
8178;DHT22;4130;48.740;9.132;2022-09-14T13:22:29;19.60;99.90
8178;DHT22;4130;48.740;9.132;2022-09-14T13:24:57;19.60;99.90
8178;DHT22;4130;48.740;9.132;2022-09-14T13:27:27;19.50;99.90
8178;DHT22;4130;48.740;9.132;2022-09-14T13:30:00;19.40;99.90
8178;DHT22;4130;48.740;9.132;2022-09-14T13:32:27;19.50;99.90
8178;DHT22;4130;48.740;9.132;2022-09-14T13:34:55;19.50;99.90
8178;DHT22;4130;48.740;9.132;2022-09-14T13:37:22;19.60;99.90
8178;DHT22;4130;48.740;9.132;2022-09-14T13:39:51;19.70;99.90
8178;DHT22;4130;48.740;9.132;2022-09-14T13:42:19;19.60;99.90
8178;DHT22;4130;48.740;9.132;2022-09-14T13:44:47;19.60;99.90
8178;DHT22;4130;48.740;9.132;2022-09-14T13:47:16;19.70;99.90
8178;DHT22;4130;48.740;9.132;2022-09-14T13:49:46;19.60;99.90
8178;DHT22;4130;48.740;9.132;2022-09-14T13:52:18;19.70;99.90
8178;DHT22;4130;48.740;9.132;2022-09-14T13:54:45;19.60;99.90
8178;DHT22;4130;48.740;9.132;2022-09-14T13:57:13;19.60;99.90
8178;DHT22;4130;48.740;9.132;2022-09-14T14:00:15;19.50;99.90
8178;DHT22;4130;48.740;9.132;2022-09-14T14:02:45;19.50;99.90
8178;DHT22;4130;48.740;9.132;2022-09-14T14:05:26;19.40;99.90
8178;DHT22;4130;48.740;9.132;2022-09-14T14:07:55;19.40;99.90
8178;DHT22;4130;48.740;9.132;2022-09-14T14:10:25;19.30;99.90
8178;DHT22;4130;48.740;9.132;2022-09-14T14:12:52;19.30;99.90
8178;DHT22;4130;48.740;9.132;2022-09-14T14:15:37;19.30;99.90
8178;DHT22;4130;48.740;9.132;2022-09-14T14:18:29;19.30;99.90
8178;DHT22;4130;48.740;9.132;2022-09-14T14:21:04;19.30;99.90
8178;DHT22;4130;48.740;9.132;2022-09-14T14:23:31;19.40;99.90
8178;DHT22;4130;48.740;9.132;2022-09-14T14:26:06;19.50;99.90
8178;DHT22;4130;48.740;9.132;2022-09-14T14:28:33;19.60;99.90
8178;DHT22;4130;48.740;9.132;2022-09-14T14:31:02;19.70;99.90
8178;DHT22;4130;48.740;9.132;2022-09-14T14:33:33;19.80;99.90
8178;DHT22;4130;48.740;9.132;2022-09-14T14:36:01;19.90;99.90
8178;DHT22;4130;48.740;9.132;2022-09-14T14:38:33;20.00;99.90
8178;DHT22;4130;48.740;9.132;2022-09-14T14:41:00;19.90;99.90
8178;DHT22;4130;48.740;9.132;2022-09-14T14:43:28;19.90;99.90
8178;DHT22;4130;48.740;9.132;2022-09-14T14:45:57;19.70;99.90
8178;DHT22;4130;48.740;9.132;2022-09-14T14:48:26;19.80;99.90
8178;DHT22;4130;48.740;9.132;2022-09-14T14:50:53;19.80;99.90
8178;DHT22;4130;48.740;9.132;2022-09-14T14:53:21;19.60;99.90
8178;DHT22;4130;48.740;9.132;2022-09-14T14:55:48;19.50;99.90
8178;DHT22;4130;48.740;9.132;2022-09-14T14:58:17;19.30;99.90
8178;DHT22;4130;48.740;9.132;2022-09-14T15:00:44;19.10;99.90
8178;DHT22;4130;48.740;9.132;2022-09-14T15:03:12;18.90;99.90
8178;DHT22;4130;48.740;9.132;2022-09-14T15:05:42;18.80;99.90
8178;DHT22;4130;48.740;9.132;2022-09-14T15:08:10;18.70;99.90
8178;DHT22;4130;48.740;9.132;2022-09-14T15:10:38;18.60;99.90
8178;DHT22;4130;48.740;9.132;2022-09-14T15:13:05;18.70;99.90
8178;DHT22;4130;48.740;9.132;2022-09-14T15:15:32;18.60;99.90
8178;DHT22;4130;48.740;9.132;2022-09-14T15:17:59;18.70;99.90
8178;DHT22;4130;48.740;9.132;2022-09-14T15:20:27;18.60;99.90
8178;DHT22;4130;48.740;9.132;2022-09-14T15:22:57;18.60;99.90
8178;DHT22;4130;48.740;9.132;2022-09-14T15:25:24;18.50;99.90
8178;DHT22;4130;48.740;9.132;2022-09-14T15:27:51;18.50;99.90
8178;DHT22;4130;48.740;9.132;2022-09-14T15:30:18;18.50;99.90
8178;DHT22;4130;48.740;9.132;2022-09-14T15:32:44;18.70;99.90
8178;DHT22;4130;48.740;9.132;2022-09-14T15:35:12;18.80;99.90
8178;DHT22;4130;48.740;9.132;2022-09-14T15:37:39;19.00;99.90
8178;DHT22;4130;48.740;9.132;2022-09-14T15:40:09;19.10;99.90
8178;DHT22;4130;48.740;9.132;2022-09-14T15:42:36;19.10;99.90
8178;DHT22;4130;48.740;9.132;2022-09-14T15:45:03;19.20;99.90
8178;DHT22;4130;48.740;9.132;2022-09-14T15:47:30;19.20;99.90
8178;DHT22;4130;48.740;9.132;2022-09-14T15:49:57;19.20;99.90
8178;DHT22;4130;48.740;9.132;2022-09-14T15:52:23;19.20;99.90
8178;DHT22;4130;48.740;9.132;2022-09-14T15:54:50;19.20;99.90
8178;DHT22;4130;48.740;9.132;2022-09-14T15:57:18;19.30;99.90
8178;DHT22;4130;48.740;9.132;2022-09-14T15:59:45;19.40;99.90
8178;DHT22;4130;48.740;9.132;2022-09-14T16:02:12;19.50;99.90
8178;DHT22;4130;48.740;9.132;2022-09-14T16:04:39;19.50;99.90
8178;DHT22;4130;48.740;9.132;2022-09-14T16:07:06;19.50;99.90
8178;DHT22;4130;48.740;9.132;2022-09-14T16:09:35;19.40;99.90
8178;DHT22;4130;48.740;9.132;2022-09-14T16:12:02;19.30;99.90
8178;DHT22;4130;48.740;9.132;2022-09-14T16:14:31;19.10;99.90
8178;DHT22;4130;48.740;9.132;2022-09-14T16:16:58;18.90;99.90
8178;DHT22;4130;48.740;9.132;2022-09-14T16:19:25;18.80;99.90
8178;DHT22;4130;48.740;9.132;2022-09-14T16:21:52;18.70;99.90
8178;DHT22;4130;48.740;9.132;2022-09-14T16:24:20;18.60;99.90
8178;DHT22;4130;48.740;9.132;2022-09-14T16:26:48;18.50;99.90
8178;DHT22;4130;48.740;9.132;2022-09-14T16:29:16;18.50;99.90
8178;DHT22;4130;48.740;9.132;2022-09-14T16:31:46;18.50;99.90
8178;DHT22;4130;48.740;9.132;2022-09-14T16:34:15;18.60;99.90
8178;DHT22;4130;48.740;9.132;2022-09-14T16:36:43;18.70;99.90
8178;DHT22;4130;48.740;9.132;2022-09-14T16:39:11;18.70;99.90
8178;DHT22;4130;48.740;9.132;2022-09-14T16:41:39;18.80;99.90